sensor_id;sensor_type;location;lat;lon;timestamp;pressure;altitude;pressure_sealevel;temperature;humidity
20971;BME280;10644;48.834;10.088;2022-11-12T00:00:24;98214.72;;;11.50;57.34
20971;BME280;10644;48.834;10.088;2022-11-12T00:02:53;98212.97;;;11.50;57.16
20971;BME280;10644;48.834;10.088;2022-11-12T00:05:25;98221.28;;;11.58;56.78
20971;BME280;10644;48.834;10.088;2022-11-12T00:07:55;98210.16;;;11.58;57.18
20971;BME280;10644;48.834;10.088;2022-11-12T00:10:21;98224.56;;;11.63;56.61
20971;BME280;10644;48.834;10.088;2022-11-12T00:12:47;98218.59;;;11.63;56.89
20971;BME280;10644;48.834;10.088;2022-11-12T00:15:26;98214.69;;;11.51;56.69
20971;BME280;10644;48.834;10.088;2022-11-12T00:17:51;98216.44;;;11.49;57.04
20971;BME280;10644;48.834;10.088;2022-11-12T00:20:18;98212.25;;;11.47;56.60
20971;BME280;10644;48.834;10.088;2022-11-12T00:22:43;98216.44;;;11.49;56.90
20971;BME280;10644;48.834;10.088;2022-11-12T00:28:20;98211.22;;;11.52;56.75
20971;BME280;10644;48.834;10.088;2022-11-12T00:30:45;98225.56;;;11.58;56.60
20971;BME280;10644;48.834;10.088;2022-11-12T00:36:38;98220.22;;;11.39;56.25
20971;BME280;10644;48.834;10.088;2022-11-12T00:39:12;98222.81;;;11.38;56.44
20971;BME280;10644;48.834;10.088;2022-11-12T00:41:38;98216.84;;;11.37;56.19
20971;BME280;10644;48.834;10.088;2022-11-12T00:44:26;98221.78;;;11.43;57.07
20971;BME280;10644;48.834;10.088;2022-11-12T00:46:55;98218.31;;;11.44;56.88
20971;BME280;10644;48.834;10.088;2022-11-12T00:49:34;98228.50;;;11.47;56.48
20971;BME280;10644;48.834;10.088;2022-11-12T00:52:03;98223.56;;;11.41;56.08
20971;BME280;10644;48.834;10.088;2022-11-12T00:54:39;98231.44;;;11.09;56.65
20971;BME280;10644;48.834;10.088;2022-11-12T00:57:12;98228.66;;;11.15;56.56
20971;BME280;10644;48.834;10.088;2022-11-12T00:59:38;98223.53;;;11.15;56.36
20971;BME280;10644;48.834;10.088;2022-11-12T01:02:09;98216.84;;;11.11;56.50
20971;BME280;10644;48.834;10.088;2022-11-12T01:04:43;98218.56;;;11.11;56.79
20971;BME280;10644;48.834;10.088;2022-11-12T01:07:29;98221.63;;;11.22;56.75
20971;BME280;10644;48.834;10.088;2022-11-12T01:10:03;98214.72;;;11.24;56.72
20971;BME280;10644;48.834;10.088;2022-11-12T01:12:35;98215.38;;;11.30;56.59
20971;BME280;10644;48.834;10.088;2022-11-12T01:15:02;98213.59;;;11.32;56.45
20971;BME280;10644;48.834;10.088;2022-11-12T01:17:35;98210.25;;;11.30;56.36
20971;BME280;10644;48.834;10.088;2022-11-12T01:20:00;98213.75;;;11.28;56.28
20971;BME280;10644;48.834;10.088;2022-11-12T01:22:45;98211.88;;;11.33;56.47
20971;BME280;10644;48.834;10.088;2022-11-12T01:25:14;98211.91;;;11.31;56.34
20971;BME280;10644;48.834;10.088;2022-11-12T01:28:05;98212.56;;;11.38;56.13
20971;BME280;10644;48.834;10.088;2022-11-12T01:30:37;98199.78;;;11.36;56.27
20971;BME280;10644;48.834;10.088;2022-11-12T01:33:11;98210.19;;;11.32;56.66
20971;BME280;10644;48.834;10.088;2022-11-12T01:35:43;98199.97;;;11.30;56.76
20971;BME280;10644;48.834;10.088;2022-11-12T01:38:12;98208.38;;;11.35;56.58
20971;BME280;10644;48.834;10.088;2022-11-12T01:40:38;98195.69;;;11.31;56.59
20971;BME280;10644;48.834;10.088;2022-11-12T01:43:22;98192.16;;;11.33;56.18
20971;BME280;10644;48.834;10.088;2022-11-12T01:45:48;98193.25;;;11.26;56.43
20971;BME280;10644;48.834;10.088;2022-11-12T01:51:35;98188.50;;;11.16;56.51
20971;BME280;10644;48.834;10.088;2022-11-12T01:54:17;98192.19;;;11.07;57.15
20971;BME280;10644;48.834;10.088;2022-11-12T01:56:47;98187.94;;;11.06;57.14
20971;BME280;10644;48.834;10.088;2022-11-12T01:59:36;98181.94;;;11.07;56.27
20971;BME280;10644;48.834;10.088;2022-11-12T02:02:02;98196.47;;;11.07;56.38
20971;BME280;10644;48.834;10.088;2022-11-12T02:04:28;98187.13;;;11.04;56.23
20971;BME280;10644;48.834;10.088;2022-11-12T02:06:56;98179.44;;;11.04;56.01
20971;BME280;10644;48.834;10.088;2022-11-12T02:09:36;98184.53;;;11.06;56.05
20971;BME280;10644;48.834;10.088;2022-11-12T02:12:08;98185.38;;;11.06;56.43
20971;BME280;10644;48.834;10.088;2022-11-12T02:14:55;98175.53;;;10.94;56.14
20971;BME280;10644;48.834;10.088;2022-11-12T02:17:28;98183.25;;;10.93;55.96
20971;BME280;10644;48.834;10.088;2022-11-12T02:20:00;98177.75;;;10.77;56.25
20971;BME280;10644;48.834;10.088;2022-11-12T02:22:26;98182.28;;;10.40;57.07
20971;BME280;10644;48.834;10.088;2022-11-12T02:24:58;98195.41;;;9.99;58.18
20971;BME280;10644;48.834;10.088;2022-11-12T02:27:23;98183.19;;;10.10;57.81
20971;BME280;10644;48.834;10.088;2022-11-12T02:29:49;98177.78;;;10.19;57.00
20971;BME280;10644;48.834;10.088;2022-11-12T02:32:16;98176.72;;;10.26;57.11
20971;BME280;10644;48.834;10.088;2022-11-12T02:34:51;98172.38;;;10.30;56.53
20971;BME280;10644;48.834;10.088;2022-11-12T02:37:18;98170.56;;;10.33;56.52
20971;BME280;10644;48.834;10.088;2022-11-12T02:39:52;98176.31;;;10.40;56.64
20971;BME280;10644;48.834;10.088;2022-11-12T02:42:27;98169.31;;;10.17;56.99
20971;BME280;10644;48.834;10.088;2022-11-12T02:44:52;98171.22;;;10.09;57.70
20971;BME280;10644;48.834;10.088;2022-11-12T02:47:53;98177.72;;;10.22;57.43
20971;BME280;10644;48.834;10.088;2022-11-12T02:50:35;98182.91;;;10.19;57.56
20971;BME280;10644;48.834;10.088;2022-11-12T02:53:19;98166.19;;;10.08;57.41
20971;BME280;10644;48.834;10.088;2022-11-12T02:55:55;98165.28;;;10.09;57.54
20971;BME280;10644;48.834;10.088;2022-11-12T02:58:20;98166.94;;;10.11;57.66
20971;BME280;10644;48.834;10.088;2022-11-12T03:00:52;98160.72;;;10.20;57.53
20971;BME280;10644;48.834;10.088;2022-11-12T03:03:25;98167.28;;;10.28;56.86
20971;BME280;10644;48.834;10.088;2022-11-12T03:06:00;98166.41;;;10.29;57.13
20971;BME280;10644;48.834;10.088;2022-11-12T03:08:57;98171.19;;;10.40;56.98
20971;BME280;10644;48.834;10.088;2022-11-12T03:11:27;98167.78;;;10.41;56.96
20971;BME280;10644;48.834;10.088;2022-11-12T03:13:58;98171.00;;;10.46;57.05
20971;BME280;10644;48.834;10.088;2022-11-12T03:16:35;98167.84;;;10.38;56.81
20971;BME280;10644;48.834;10.088;2022-11-12T03:19:13;98168.28;;;10.23;57.12
20971;BME280;10644;48.834;10.088;2022-11-12T03:21:47;98167.03;;;10.07;57.70
20971;BME280;10644;48.834;10.088;2022-11-12T03:24:13;98176.19;;;10.15;57.29
20971;BME280;10644;48.834;10.088;2022-11-12T03:26:44;98174.16;;;10.26;57.57
20971;BME280;10644;48.834;10.088;2022-11-12T03:29:09;98156.91;;;10.33;57.92
20971;BME280;10644;48.834;10.088;2022-11-12T03:31:36;98165.34;;;10.36;57.22
20971;BME280;10644;48.834;10.088;2022-11-12T03:34:09;98167.00;;;10.37;57.23
20971;BME280;10644;48.834;10.088;2022-11-12T03:36:45;98166.81;;;10.43;56.96
20971;BME280;10644;48.834;10.088;2022-11-12T03:39:10;98168.41;;;10.47;57.72
20971;BME280;10644;48.834;10.088;2022-11-12T03:41:43;98162.38;;;10.50;56.90
20971;BME280;10644;48.834;10.088;2022-11-12T03:44:10;98164.84;;;10.53;57.25
20971;BME280;10644;48.834;10.088;2022-11-12T03:46:35;98165.81;;;10.49;57.85
20971;BME280;10644;48.834;10.088;2022-11-12T03:49:10;98167.31;;;10.56;57.27
20971;BME280;10644;48.834;10.088;2022-11-12T03:51:43;98175.72;;;10.59;57.52
20971;BME280;10644;48.834;10.088;2022-11-12T03:54:10;98175.81;;;10.58;57.35
20971;BME280;10644;48.834;10.088;2022-11-12T03:56:37;98191.91;;;10.61;57.41
20971;BME280;10644;48.834;10.088;2022-11-12T03:59:18;98174.09;;;10.57;57.22
20971;BME280;10644;48.834;10.088;2022-11-12T04:01:48;98177.56;;;10.56;57.81
20971;BME280;10644;48.834;10.088;2022-11-12T04:04:24;98191.91;;;10.61;57.49
20971;BME280;10644;48.834;10.088;2022-11-12T04:07:11;98185.78;;;10.65;57.83
20971;BME280;10644;48.834;10.088;2022-11-12T04:09:57;98169.63;;;10.63;58.17
20971;BME280;10644;48.834;10.088;2022-11-12T04:12:29;98167.78;;;10.68;58.20
20971;BME280;10644;48.834;10.088;2022-11-12T04:15:13;98170.06;;;10.77;57.94
20971;BME280;10644;48.834;10.088;2022-11-12T04:17:38;98174.19;;;10.81;58.03
20971;BME280;10644;48.834;10.088;2022-11-12T04:20:29;98174.19;;;10.81;57.69
20971;BME280;10644;48.834;10.088;2022-11-12T04:23:30;98173.31;;;10.82;58.20
20971;BME280;10644;48.834;10.088;2022-11-12T04:26:06;98179.25;;;10.84;57.91
20971;BME280;10644;48.834;10.088;2022-11-12T04:28:55;98183.81;;;10.75;57.85
20971;BME280;10644;48.834;10.088;2022-11-12T04:31:39;98178.66;;;10.47;58.42
20971;BME280;10644;48.834;10.088;2022-11-12T04:34:08;98181.25;;;10.46;58.74
20971;BME280;10644;48.834;10.088;2022-11-12T04:36:54;98181.94;;;10.52;58.69
20971;BME280;10644;48.834;10.088;2022-11-12T04:39:29;98179.09;;;10.61;58.51
20971;BME280;10644;48.834;10.088;2022-11-12T04:42:07;98171.13;;;10.70;58.17
20971;BME280;10644;48.834;10.088;2022-11-12T04:44:51;98166.69;;;10.75;58.65
20971;BME280;10644;48.834;10.088;2022-11-12T04:47:40;98172.44;;;10.83;57.73
20971;BME280;10644;48.834;10.088;2022-11-12T04:50:17;98168.19;;;10.82;57.88
20971;BME280;10644;48.834;10.088;2022-11-12T04:53:05;98182.38;;;10.37;59.64
20971;BME280;10644;48.834;10.088;2022-11-12T04:58:40;98180.69;;;10.07;61.58
20971;BME280;10644;48.834;10.088;2022-11-12T05:01:06;98178.81;;;10.14;60.87
20971;BME280;10644;48.834;10.088;2022-11-12T05:03:37;98177.66;;;10.24;60.84
20971;BME280;10644;48.834;10.088;2022-11-12T05:06:06;98184.25;;;10.32;60.50
20971;BME280;10644;48.834;10.088;2022-11-12T05:09:00;98193.06;;;10.51;59.77
20971;BME280;10644;48.834;10.088;2022-11-12T05:11:26;98188.91;;;10.47;60.35
20971;BME280;10644;48.834;10.088;2022-11-12T05:13:52;98195.25;;;10.05;61.69
20971;BME280;10644;48.834;10.088;2022-11-12T05:16:29;98195.72;;;9.87;62.22
20971;BME280;10644;48.834;10.088;2022-11-12T05:18:54;98185.50;;;9.87;61.71
20971;BME280;10644;48.834;10.088;2022-11-12T05:21:34;98192.28;;;9.88;61.62
20971;BME280;10644;48.834;10.088;2022-11-12T05:24:37;98195.25;;;10.05;60.84
20971;BME280;10644;48.834;10.088;2022-11-12T05:27:20;98198.97;;;9.92;61.58
20971;BME280;10644;48.834;10.088;2022-11-12T05:29:46;98186.88;;;9.99;61.65
20971;BME280;10644;48.834;10.088;2022-11-12T05:35:29;98198.53;;;10.10;60.57
20971;BME280;10644;48.834;10.088;2022-11-12T05:37:57;98203.81;;;10.04;61.02
20971;BME280;10644;48.834;10.088;2022-11-12T05:40:43;98192.94;;;9.95;61.36
20971;BME280;10644;48.834;10.088;2022-11-12T05:43:13;98197.47;;;9.85;61.80
20971;BME280;10644;48.834;10.088;2022-11-12T05:45:46;98198.72;;;10.04;60.95
20971;BME280;10644;48.834;10.088;2022-11-12T05:48:21;98187.28;;;10.16;60.95
20971;BME280;10644;48.834;10.088;2022-11-12T05:50:57;98187.78;;;10.28;60.28
20971;BME280;10644;48.834;10.088;2022-11-12T05:53:24;98188.41;;;10.35;59.67
20971;BME280;10644;48.834;10.088;2022-11-12T05:55:50;98183.78;;;10.18;60.57
20971;BME280;10644;48.834;10.088;2022-11-12T05:58:18;98191.84;;;10.03;60.22
20971;BME280;10644;48.834;10.088;2022-11-12T06:00:43;98193.59;;;10.04;60.84
20971;BME280;10644;48.834;10.088;2022-11-12T06:03:28;98191.66;;;10.12;60.42
20971;BME280;10644;48.834;10.088;2022-11-12T06:05:57;98200.09;;;10.14;60.64
20971;BME280;10644;48.834;10.088;2022-11-12T06:08:56;98192.97;;;10.25;60.36
20971;BME280;10644;48.834;10.088;2022-11-12T06:11:22;98185.19;;;10.30;59.75
20971;BME280;10644;48.834;10.088;2022-11-12T06:13:57;98194.56;;;10.29;59.57
20971;BME280;10644;48.834;10.088;2022-11-12T06:16:27;98193.06;;;10.22;59.70
20971;BME280;10644;48.834;10.088;2022-11-12T06:18:52;98199.81;;;9.94;60.23
20971;BME280;10644;48.834;10.088;2022-11-12T06:21:28;98200.63;;;9.95;60.59
20971;BME280;10644;48.834;10.088;2022-11-12T06:24:26;98198.97;;;9.92;60.18
20971;BME280;10644;48.834;10.088;2022-11-12T06:26:58;98206.63;;;9.94;60.68
20971;BME280;10644;48.834;10.088;2022-11-12T06:29:28;98193.69;;;9.98;59.74
20971;BME280;10644;48.834;10.088;2022-11-12T06:31:54;98193.50;;;10.07;59.64
20971;BME280;10644;48.834;10.088;2022-11-12T06:34:28;98195.66;;;10.21;59.43
20971;BME280;10644;48.834;10.088;2022-11-12T06:36:56;98192.78;;;10.31;59.62
20971;BME280;10644;48.834;10.088;2022-11-12T06:39:27;98192.97;;;10.25;59.26
20971;BME280;10644;48.834;10.088;2022-11-12T06:41:54;98191.53;;;10.15;59.06
20971;BME280;10644;48.834;10.088;2022-11-12T06:44:36;98192.25;;;10.20;59.51
20971;BME280;10644;48.834;10.088;2022-11-12T06:47:10;98203.50;;;10.16;59.29
20971;BME280;10644;48.834;10.088;2022-11-12T06:49:36;98186.34;;;10.18;59.79
20971;BME280;10644;48.834;10.088;2022-11-12T06:52:07;98189.53;;;10.26;59.45
20971;BME280;10644;48.834;10.088;2022-11-12T06:54:55;98202.97;;;10.34;59.17
20971;BME280;10644;48.834;10.088;2022-11-12T06:57:24;98191.03;;;10.33;58.70
20971;BME280;10644;48.834;10.088;2022-11-12T07:00:09;98201.13;;;10.39;59.13
20971;BME280;10644;48.834;10.088;2022-11-12T07:02:37;98189.38;;;10.32;58.13
20971;BME280;10644;48.834;10.088;2022-11-12T07:05:12;98193.72;;;10.29;58.42
20971;BME280;10644;48.834;10.088;2022-11-12T07:07:40;98193.72;;;10.29;58.65
20971;BME280;10644;48.834;10.088;2022-11-12T07:10:15;98196.22;;;10.32;58.65
20971;BME280;10644;48.834;10.088;2022-11-12T07:12:40;98202.31;;;10.26;58.65
20971;BME280;10644;48.834;10.088;2022-11-12T07:15:07;98191.28;;;10.24;58.28
20971;BME280;10644;48.834;10.088;2022-11-12T07:17:44;98203.78;;;10.35;58.62
20971;BME280;10644;48.834;10.088;2022-11-12T07:20:18;98201.19;;;10.36;58.67
20971;BME280;10644;48.834;10.088;2022-11-12T07:23:00;98197.66;;;10.40;58.77
20971;BME280;10644;48.834;10.088;2022-11-12T07:25:27;98194.13;;;10.44;58.49
20971;BME280;10644;48.834;10.088;2022-11-12T07:28:01;98190.94;;;10.36;58.78
20971;BME280;10644;48.834;10.088;2022-11-12T07:30:26;98184.84;;;10.40;58.90
20971;BME280;10644;48.834;10.088;2022-11-12T07:32:57;98181.44;;;10.40;58.58
20971;BME280;10644;48.834;10.088;2022-11-12T07:35:23;98193.97;;;10.50;58.57
20971;BME280;10644;48.834;10.088;2022-11-12T07:37:51;98190.41;;;10.54;58.24
20971;BME280;10644;48.834;10.088;2022-11-12T07:40:23;98188.19;;;10.42;58.49
20971;BME280;10644;48.834;10.088;2022-11-12T07:42:57;98190.31;;;10.30;58.91
20971;BME280;10644;48.834;10.088;2022-11-12T07:45:27;98188.41;;;10.35;59.37
20971;BME280;10644;48.834;10.088;2022-11-12T07:47:58;98190.75;;;10.42;59.19
20971;BME280;10644;48.834;10.088;2022-11-12T07:50:24;98185.53;;;10.47;58.96
20971;BME280;10644;48.834;10.088;2022-11-12T07:52:49;98184.31;;;10.58;59.65
20971;BME280;10644;48.834;10.088;2022-11-12T07:55:28;98187.50;;;10.66;59.27
20971;BME280;10644;48.834;10.088;2022-11-12T07:57:57;98181.19;;;10.49;59.05
20971;BME280;10644;48.834;10.088;2022-11-12T08:00:25;98178.16;;;10.35;59.37
20971;BME280;10644;48.834;10.088;2022-11-12T08:03:00;98184.84;;;10.40;59.74
20971;BME280;10644;48.834;10.088;2022-11-12T08:05:26;98190.41;;;10.54;59.95
20971;BME280;10644;48.834;10.088;2022-11-12T08:07:55;98183.94;;;10.70;59.92
20971;BME280;10644;48.834;10.088;2022-11-12T08:10:24;98173.50;;;10.76;59.98
20971;BME280;10644;48.834;10.088;2022-11-12T08:13:12;98184.00;;;10.96;59.54
20971;BME280;10644;48.834;10.088;2022-11-12T08:15:40;98178.47;;;11.08;59.49
20971;BME280;10644;48.834;10.088;2022-11-12T08:18:06;98183.13;;;11.23;59.79
20971;BME280;10644;48.834;10.088;2022-11-12T08:20:31;98180.34;;;11.29;59.62
20971;BME280;10644;48.834;10.088;2022-11-12T08:23:09;98180.94;;;11.37;59.37
20971;BME280;10644;48.834;10.088;2022-11-12T08:25:36;98183.88;;;11.51;59.71
20971;BME280;10644;48.834;10.088;2022-11-12T08:28:02;98180.22;;;11.60;59.56
20971;BME280;10644;48.834;10.088;2022-11-12T08:30:29;98185.88;;;11.69;59.41
20971;BME280;10644;48.834;10.088;2022-11-12T08:33:00;98185.34;;;11.84;59.52
20971;BME280;10644;48.834;10.088;2022-11-12T08:35:36;98186.63;;;11.96;59.13
20971;BME280;10644;48.834;10.088;2022-11-12T08:38:04;98185.19;;;12.12;58.98
20971;BME280;10644;48.834;10.088;2022-11-12T08:40:34;98190.75;;;12.24;59.02
20971;BME280;10644;48.834;10.088;2022-11-12T08:43:07;98191.47;;;12.28;59.10
20971;BME280;10644;48.834;10.088;2022-11-12T08:45:36;98186.16;;;12.32;59.20
20971;BME280;10644;48.834;10.088;2022-11-12T08:48:05;98186.69;;;12.40;59.20
20971;BME280;10644;48.834;10.088;2022-11-12T08:50:32;98185.69;;;12.44;58.87
20971;BME280;10644;48.834;10.088;2022-11-12T08:53:11;98187.50;;;12.42;59.06
20971;BME280;10644;48.834;10.088;2022-11-12T08:55:37;98180.69;;;12.41;58.70
20971;BME280;10644;48.834;10.088;2022-11-12T08:58:05;98184.66;;;12.50;59.32
20971;BME280;10644;48.834;10.088;2022-11-12T09:00:41;98181.56;;;12.63;59.21
20971;BME280;10644;48.834;10.088;2022-11-12T09:03:18;98171.63;;;12.76;59.14
20971;BME280;10644;48.834;10.088;2022-11-12T09:05:46;98183.94;;;12.89;58.94
20971;BME280;10644;48.834;10.088;2022-11-12T09:08:15;98179.19;;;13.02;58.81
20971;BME280;10644;48.834;10.088;2022-11-12T09:10:43;98183.66;;;13.18;58.42
20971;BME280;10644;48.834;10.088;2022-11-12T09:13:08;98172.13;;;13.28;58.01
20971;BME280;10644;48.834;10.088;2022-11-12T09:15:36;98170.97;;;13.35;58.21
20971;BME280;10644;48.834;10.088;2022-11-12T09:18:12;98176.44;;;13.06;58.31
20971;BME280;10644;48.834;10.088;2022-11-12T09:20:53;98169.84;;;12.78;59.11
20971;BME280;10644;48.834;10.088;2022-11-12T09:23:20;98163.28;;;12.92;58.88
20971;BME280;10644;48.834;10.088;2022-11-12T09:26:04;98188.66;;;12.34;60.75
20971;BME280;10644;48.834;10.088;2022-11-12T09:28:39;98182.22;;;12.45;60.59
20971;BME280;10644;48.834;10.088;2022-11-12T09:31:14;98177.72;;;12.73;59.69
20971;BME280;10644;48.834;10.088;2022-11-12T09:33:59;98185.31;;;12.99;59.55
20971;BME280;10644;48.834;10.088;2022-11-12T09:36:28;98173.38;;;13.18;59.02
20971;BME280;10644;48.834;10.088;2022-11-12T09:39:08;98171.84;;;13.34;58.20
20971;BME280;10644;48.834;10.088;2022-11-12T09:41:37;98185.38;;;13.39;58.64
20971;BME280;10644;48.834;10.088;2022-11-12T09:47:22;98190.50;;;13.19;58.38
20971;BME280;10644;48.834;10.088;2022-11-12T09:52:47;98175.47;;;12.87;59.53
20971;BME280;10644;48.834;10.088;2022-11-12T09:55:38;98175.75;;;12.80;59.98
20971;BME280;10644;48.834;10.088;2022-11-12T09:58:17;98179.03;;;12.62;60.77
20971;BME280;10644;48.834;10.088;2022-11-12T10:00:54;98171.81;;;12.71;60.52
20971;BME280;10644;48.834;10.088;2022-11-12T10:06:31;98160.63;;;12.72;61.02
20971;BME280;10644;48.834;10.088;2022-11-12T10:09:22;98164.34;;;12.87;60.59
20971;BME280;10644;48.834;10.088;2022-11-12T10:12:44;98171.28;;;13.06;60.29
20971;BME280;10644;48.834;10.088;2022-11-12T10:24:10;98172.50;;;12.98;61.40
20971;BME280;10644;48.834;10.088;2022-11-12T10:26:49;98158.06;;;12.72;62.28
20971;BME280;10644;48.834;10.088;2022-11-12T10:32:50;98156.97;;;12.33;64.30
20971;BME280;10644;48.834;10.088;2022-11-12T10:35:22;98157.78;;;12.35;64.14
20971;BME280;10644;48.834;10.088;2022-11-12T10:38:04;98145.44;;;12.45;64.53
20971;BME280;10644;48.834;10.088;2022-11-12T10:41:16;98146.38;;;12.42;64.44
20971;BME280;10644;48.834;10.088;2022-11-12T10:44:06;98153.53;;;12.11;65.61
20971;BME280;10644;48.834;10.088;2022-11-12T10:46:48;98148.84;;;12.22;65.89
20971;BME280;10644;48.834;10.088;2022-11-12T10:51:54;98145.50;;;12.20;65.81
20971;BME280;10644;48.834;10.088;2022-11-12T11:03:33;98135.84;;;12.27;66.39
20971;BME280;10644;48.834;10.088;2022-11-12T11:11:49;98131.09;;;12.61;65.64
20971;BME280;10644;48.834;10.088;2022-11-12T11:17:02;98133.34;;;12.68;65.58
20971;BME280;10644;48.834;10.088;2022-11-12T11:26:23;98125.25;;;13.00;64.92
20971;BME280;10644;48.834;10.088;2022-11-12T11:28:59;98117.34;;;13.05;64.86
20971;BME280;10644;48.834;10.088;2022-11-12T11:32:37;98110.88;;;13.16;64.68
20971;BME280;10644;48.834;10.088;2022-11-12T11:51:43;98091.69;;;13.43;63.75
20971;BME280;10644;48.834;10.088;2022-11-12T11:57:25;98090.09;;;13.41;64.29
20971;BME280;10644;48.834;10.088;2022-11-12T12:05:49;98087.19;;;13.08;65.54
20971;BME280;10644;48.834;10.088;2022-11-12T12:19:43;98074.06;;;13.34;64.96
20971;BME280;10644;48.834;10.088;2022-11-12T12:22:44;98063.75;;;13.54;64.29
20971;BME280;10644;48.834;10.088;2022-11-12T12:25:14;98061.19;;;13.54;64.41
20971;BME280;10644;48.834;10.088;2022-11-12T12:30:54;98055.47;;;14.23;62.51
20971;BME280;10644;48.834;10.088;2022-11-12T12:36:41;98056.38;;;14.22;62.29
20971;BME280;10644;48.834;10.088;2022-11-12T12:42:21;98060.75;;;13.63;63.56
20971;BME280;10644;48.834;10.088;2022-11-12T12:45:00;98060.34;;;13.53;64.67
20971;BME280;10644;48.834;10.088;2022-11-12T12:47:44;98050.63;;;13.60;64.35
20971;BME280;10644;48.834;10.088;2022-11-12T12:50:14;98052.25;;;13.81;63.56
20971;BME280;10644;48.834;10.088;2022-11-12T12:53:04;98050.91;;;13.91;63.41
20971;BME280;10644;48.834;10.088;2022-11-12T12:55:47;98045.75;;;13.54;64.16
20971;BME280;10644;48.834;10.088;2022-11-12T12:58:40;98054.00;;;13.42;64.77
20971;BME280;10644;48.834;10.088;2022-11-12T13:04:07;98036.75;;;13.24;65.76
20971;BME280;10644;48.834;10.088;2022-11-12T13:09:45;98032.88;;;13.34;65.42
20971;BME280;10644;48.834;10.088;2022-11-12T13:15:57;98029.00;;;13.64;64.72
20971;BME280;10644;48.834;10.088;2022-11-12T13:21:25;98027.09;;;13.86;63.52
20971;BME280;10644;48.834;10.088;2022-11-12T13:24:01;98023.94;;;13.81;63.34
20971;BME280;10644;48.834;10.088;2022-11-12T13:40:51;98015.94;;;14.41;61.60
20971;BME280;10644;48.834;10.088;2022-11-12T13:43:51;98007.78;;;14.67;60.92
20971;BME280;10644;48.834;10.088;2022-11-12T13:46:31;98002.78;;;14.64;60.35
20971;BME280;10644;48.834;10.088;2022-11-12T13:49:15;98005.22;;;14.67;61.07
20971;BME280;10644;48.834;10.088;2022-11-12T13:51:46;98010.69;;;14.78;60.47
20971;BME280;10644;48.834;10.088;2022-11-12T13:57:27;98017.50;;;14.79;59.88
20971;BME280;10644;48.834;10.088;2022-11-12T14:00:19;98020.41;;;14.37;61.30
20971;BME280;10644;48.834;10.088;2022-11-12T14:03:04;98013.91;;;14.47;61.54
20971;BME280;10644;48.834;10.088;2022-11-12T14:05:32;98018.56;;;14.75;60.55
20971;BME280;10644;48.834;10.088;2022-11-12T14:20:39;98013.94;;;14.29;61.56
20971;BME280;10644;48.834;10.088;2022-11-12T14:26:49;98013.25;;;14.61;60.27
20971;BME280;10644;48.834;10.088;2022-11-12T14:29:20;98004.75;;;14.59;59.27
20971;BME280;10644;48.834;10.088;2022-11-12T14:32:12;97997.28;;;14.36;60.25
20971;BME280;10644;48.834;10.088;2022-11-12T14:38:13;97997.16;;;14.02;60.63
20971;BME280;10644;48.834;10.088;2022-11-12T14:44:37;97978.94;;;13.88;60.22
20971;BME280;10644;48.834;10.088;2022-11-12T14:47:16;97982.22;;;13.73;60.68
20971;BME280;10644;48.834;10.088;2022-11-12T14:49:45;97974.47;;;13.91;60.26
20971;BME280;10644;48.834;10.088;2022-11-12T14:52:31;97973.97;;;14.02;59.64
20971;BME280;10644;48.834;10.088;2022-11-12T14:55:05;97987.94;;;13.98;59.51
20971;BME280;10644;48.834;10.088;2022-11-12T14:57:38;97968.97;;;13.99;59.29
20971;BME280;10644;48.834;10.088;2022-11-12T15:03:04;97974.47;;;13.36;61.44
20971;BME280;10644;48.834;10.088;2022-11-12T15:05:30;97978.81;;;13.54;60.87
20971;BME280;10644;48.834;10.088;2022-11-12T15:08:34;97973.22;;;13.63;60.38
20971;BME280;10644;48.834;10.088;2022-11-12T15:13:45;97968.00;;;13.64;60.21
20971;BME280;10644;48.834;10.088;2022-11-12T15:16:21;97962.88;;;13.64;60.28
20971;BME280;10644;48.834;10.088;2022-11-12T15:21:49;97943.28;;;13.79;59.79
20971;BME280;10644;48.834;10.088;2022-11-12T15:27:37;97956.56;;;13.53;60.66
20971;BME280;10644;48.834;10.088;2022-11-12T15:30:19;97956.19;;;13.42;60.74
20971;BME280;10644;48.834;10.088;2022-11-12T15:39:10;97958.84;;;13.59;59.48
20971;BME280;10644;48.834;10.088;2022-11-12T15:41:43;97949.03;;;13.67;59.54
20971;BME280;10644;48.834;10.088;2022-11-12T15:44:16;97949.69;;;13.52;59.17
20971;BME280;10644;48.834;10.088;2022-11-12T15:46:52;97949.69;;;13.15;60.26
20971;BME280;10644;48.834;10.088;2022-11-12T15:49:21;97947.25;;;12.92;60.74
20971;BME280;10644;48.834;10.088;2022-11-12T15:51:58;97941.00;;;12.98;60.57
20971;BME280;10644;48.834;10.088;2022-11-12T15:54:32;97951.47;;;13.13;60.11
20971;BME280;10644;48.834;10.088;2022-11-12T15:57:20;97949.19;;;13.26;59.60
20971;BME280;10644;48.834;10.088;2022-11-12T15:59:53;97938.44;;;13.36;58.86
20971;BME280;10644;48.834;10.088;2022-11-12T16:02:28;97940.38;;;13.13;58.99
20971;BME280;10644;48.834;10.088;2022-11-12T16:08:22;97943.06;;;12.90;59.78
20971;BME280;10644;48.834;10.088;2022-11-12T16:11:25;97951.88;;;12.64;60.49
20971;BME280;10644;48.834;10.088;2022-11-12T16:14:00;97948.41;;;12.24;61.59
20971;BME280;10644;48.834;10.088;2022-11-12T16:16:28;97945.41;;;11.93;62.63
20971;BME280;10644;48.834;10.088;2022-11-12T16:22:23;97940.00;;;11.54;64.24
20971;BME280;10644;48.834;10.088;2022-11-12T16:25:05;97951.72;;;11.61;64.02
20971;BME280;10644;48.834;10.088;2022-11-12T16:27:47;97948.38;;;11.36;64.95
20971;BME280;10644;48.834;10.088;2022-11-12T16:30:45;97937.91;;;11.42;64.93
20971;BME280;10644;48.834;10.088;2022-11-12T16:33:30;97941.84;;;11.51;64.18
20971;BME280;10644;48.834;10.088;2022-11-12T16:36:01;97944.47;;;11.49;64.30
20971;BME280;10644;48.834;10.088;2022-11-12T16:38:41;97940.72;;;11.58;64.22